Terminal Aerodrome Forecast
Issued by NWS

Home | Current Version | Previous Version | Text Only | Print | Product List | Glossary On
Versions: 1 2 3 4 5 6 7 8 9 10 11 12 13 14 15 16 17 18 19 20
755
FTUS46 KMTR 280532
TAFOAK
TAF
KOAK 280532Z 2806/2912 29006KT P6SM FEW200
     FM281200 VRB05KT P6SM SKC
     FM281900 28012KT P6SM SKC
     FM290300 26006KT P6SM FEW015
     FM290900 27005KT P6SM BKN015=

USA.gov is the U.S. government's official web portal to all federal, state and local government web resources and services.